Cdry Blue — ICOB — position and weather

sailwx.info

Track history (hours):
 
Tides and Currents Weather Stations Pressure Air Temp Water Temp Dewpoint Dewpoint Depression Visibility Wind Speed Wind Dir Waves Ship Positions

Cdry Blue

Last reported at 2017-Jan-16 13:06 UTC. Time now 2017-Jan-16 21:52 UTC.
Position N 40°29' E 017°13'.

Length 108 m; draft 4.7 m.

Type: Cargo ship. MMSI: 247289300.

Date/timePositionNaut miles runAvg speedWind from/ knotsBaromVisibWave heightAir tempDewpointWater temp
2017-Jan-16 13:06N 40°29' E 017°13'0 0.0
2017-Jan-16 12:33N 40°29' E 017°13'0 0.0
2017-Jan-16 11:30N 40°29' E 017°13'0 0.0
2017-Jan-16 10:33N 40°29' E 017°13'0 0.0
2017-Jan-16 09:30N 40°29' E 017°13'0 0.0
2017-Jan-16 08:33N 40°29' E 017°13'  
2017-Jan-13 19:33N 40°29' E 017°13'0 0.0
2017-Jan-13 18:33N 40°29' E 017°13'0 0.0
2017-Jan-13 17:33N 40°29' E 017°13'0 0.0
2017-Jan-13 16:33N 40°29' E 017°13'0 0.0
2017-Jan-13 15:33N 40°29' E 017°13'0 0.0
2017-Jan-13 14:33N 40°29' E 017°13'0 0.0
2017-Jan-13 13:33N 40°29' E 017°13'0 0.0
2017-Jan-13 12:33N 40°29' E 017°13'0 0.0
2017-Jan-13 11:30N 40°29' E 017°13'0 0.0
2017-Jan-13 10:30N 40°29' E 017°13'0 0.0
2017-Jan-13 09:30N 40°29' E 017°13'0 0.0
2017-Jan-13 08:30N 40°29' E 017°13'0 0.0
2017-Jan-13 03:18N 40°29' E 017°13'0 0.0
2017-Jan-13 02:33N 40°29' E 017°13'0 0.0
2017-Jan-13 01:33N 40°29' E 017°13'0 0.0
2017-Jan-13 00:33N 40°29' E 017°13'0 0.0
2017-Jan-12 23:33N 40°29' E 017°13'0 0.0
2017-Jan-12 22:33N 40°29' E 017°13'0 0.0
2017-Jan-12 21:33N 40°29' E 017°13'0 0.0
2017-Jan-12 20:33N 40°29' E 017°13'0 0.0
2017-Jan-12 19:27N 40°29' E 017°13'0 0.0
2017-Jan-12 18:30N 40°29' E 017°13'0 0.0
2017-Jan-12 17:33N 40°29' E 017°13'0 0.0
2017-Jan-12 16:33N 40°29' E 017°13'6 0.3
2017-Jan-11 16:32N 40°23' E 017°09'1312.6
2017-Jan-11 15:32N 40°11' E 017°12'153 9.6
2017-Jan-10 23:33N 37°53' E 015°47'1211.9
2017-Jan-10 22:33N 37°59' E 015°35'1313.0
2017-Jan-10 21:33N 38°12' E 015°36'1110.9
2017-Jan-10 20:33N 38°22' E 015°39'1212.0
2017-Jan-10 19:33N 38°33' E 015°32'1313.0
2017-Jan-10 18:33N 38°45' E 015°24'1313.2
2017-Jan-10 17:33N 38°57' E 015°17'33513.4
2017-Jan-09 16:33N 43°03' E 010°17'1413.8
2017-Jan-09 15:33N 43°11' E 010°02'1413.5
2017-Jan-09 14:33N 43°20' E 009°48'1313.5
2017-Jan-09 13:33N 43°28' E 009°33'1313.0
2017-Jan-09 12:33N 43°39' E 009°24'1313.5
2017-Jan-09 11:33N 43°51' E 009°16'1313.4
2017-Jan-09 10:33N 44°04' E 009°08'1313.4
2017-Jan-09 09:33N 44°15' E 008°59'10 9.5
2017-Jan-09 08:28N 44°24' E 008°52'0 0.0
2017-Jan-09 07:28N 44°24' E 008°52'0 0.0
2017-Jan-09 06:31N 44°24' E 008°52'0 0.0
2017-Jan-09 05:31N 44°24' E 008°52'0 0.0
2017-Jan-09 04:31N 44°24' E 008°52'0 0.0
2017-Jan-09 03:31N 44°24' E 008°52'0 0.0
2017-Jan-09 02:31N 44°24' E 008°52'0 0.0
2017-Jan-09 01:31N 44°24' E 008°52'0 0.0
2017-Jan-09 00:31N 44°24' E 008°52'0 0.0
2017-Jan-08 23:31N 44°24' E 008°52'0 0.0
2017-Jan-08 22:28N 44°24' E 008°52'0 0.0
2017-Jan-08 21:31N 44°24' E 008°52'0 0.0
2017-Jan-08 20:28N 44°24' E 008°52'0 0.0
2017-Jan-08 19:28N 44°24' E 008°52'0 0.0
2017-Jan-08 18:28N 44°24' E 008°52'0 0.0
2017-Jan-08 17:31N 44°24' E 008°52'0 0.0
2017-Jan-08 16:31N 44°24' E 008°52'0 0.0
2017-Jan-08 15:31N 44°24' E 008°52'0 0.0
2017-Jan-08 14:28N 44°24' E 008°52'0 0.0
2017-Jan-08 13:31N 44°24' E 008°52'0 0.0
2017-Jan-08 12:31N 44°24' E 008°52'0 0.0
2017-Jan-08 11:31N 44°24' E 008°52'0 0.0
2017-Jan-08 10:22N 44°24' E 008°52'0 0.0
2017-Jan-08 09:25N 44°24' E 008°52'0 0.0
2017-Jan-08 08:25N 44°24' E 008°52'0 0.0
2017-Jan-08 07:25N 44°24' E 008°52'0 0.2
2017-Jan-08 06:33N 44°24' E 008°52'5 5.0
2017-Jan-08 05:34N 44°22' E 008°58'1110.6
2017-Jan-08 04:33N 44°12' E 009°04'1212.5
2017-Jan-08 03:34N 44°01' E 009°12'1212.4
2017-Jan-08 02:33N 43°49' E 009°19'1212.3
2017-Jan-08 01:33N 43°38' E 009°26'1212.2
2017-Jan-08 00:33N 43°27' E 009°34'1212.4
2017-Jan-07 23:33N 43°20' E 009°48'1412.1
2017-Jan-07 22:25N 43°12' E 010°03'  
Track history (hours):
 
Tides and Currents Weather Stations Pressure Air Temp Water Temp Dewpoint Dewpoint Depression Visibility Wind Speed Wind Dir Waves Ship Positions

Cdry Blue

Last reported at 2017-Jan-16 13:06 UTC. Time now 2017-Jan-16 21:52 UTC.
Position N 40°29' E 017°13'.

Length 108 m; draft 4.7 m.

Type: Cargo ship. MMSI: 247289300.

Date/timePositionNaut miles runAvg speedWind from/ knotsBaromVisibWave heightAir tempDewpointWater temp
2017-Jan-16 13:06N 40°29' E 017°13'0 0.0
2017-Jan-16 12:33N 40°29' E 017°13'0 0.0
2017-Jan-16 11:30N 40°29' E 017°13'0 0.0
2017-Jan-16 10:33N 40°29' E 017°13'0 0.0
2017-Jan-16 09:30N 40°29' E 017°13'0 0.0
2017-Jan-16 08:33N 40°29' E 017°13'  
2017-Jan-13 19:33N 40°29' E 017°13'0 0.0
2017-Jan-13 18:33N 40°29' E 017°13'0 0.0
2017-Jan-13 17:33N 40°29' E 017°13'0 0.0
2017-Jan-13 16:33N 40°29' E 017°13'0 0.0
2017-Jan-13 15:33N 40°29' E 017°13'0 0.0
2017-Jan-13 14:33N 40°29' E 017°13'0 0.0
2017-Jan-13 13:33N 40°29' E 017°13'0 0.0
2017-Jan-13 12:33N 40°29' E 017°13'0 0.0
2017-Jan-13 11:30N 40°29' E 017°13'0 0.0
2017-Jan-13 10:30N 40°29' E 017°13'0 0.0
2017-Jan-13 09:30N 40°29' E 017°13'0 0.0
2017-Jan-13 08:30N 40°29' E 017°13'0 0.0
2017-Jan-13 03:18N 40°29' E 017°13'0 0.0
2017-Jan-13 02:33N 40°29' E 017°13'0 0.0
2017-Jan-13 01:33N 40°29' E 017°13'0 0.0
2017-Jan-13 00:33N 40°29' E 017°13'0 0.0
2017-Jan-12 23:33N 40°29' E 017°13'0 0.0
2017-Jan-12 22:33N 40°29' E 017°13'0 0.0
2017-Jan-12 21:33N 40°29' E 017°13'0 0.0
2017-Jan-12 20:33N 40°29' E 017°13'0 0.0
2017-Jan-12 19:27N 40°29' E 017°13'0 0.0
2017-Jan-12 18:30N 40°29' E 017°13'0 0.0
2017-Jan-12 17:33N 40°29' E 017°13'0 0.0
2017-Jan-12 16:33N 40°29' E 017°13'6 0.3
2017-Jan-11 16:32N 40°23' E 017°09'1312.6
2017-Jan-11 15:32N 40°11' E 017°12'153 9.6
2017-Jan-10 23:33N 37°53' E 015°47'1211.9
2017-Jan-10 22:33N 37°59' E 015°35'1313.0
2017-Jan-10 21:33N 38°12' E 015°36'1110.9
2017-Jan-10 20:33N 38°22' E 015°39'1212.0
2017-Jan-10 19:33N 38°33' E 015°32'1313.0
2017-Jan-10 18:33N 38°45' E 015°24'1313.2
2017-Jan-10 17:33N 38°57' E 015°17'33513.4
2017-Jan-09 16:33N 43°03' E 010°17'1413.8
2017-Jan-09 15:33N 43°11' E 010°02'1413.5
2017-Jan-09 14:33N 43°20' E 009°48'1313.5
2017-Jan-09 13:33N 43°28' E 009°33'1313.0
2017-Jan-09 12:33N 43°39' E 009°24'1313.5
2017-Jan-09 11:33N 43°51' E 009°16'1313.4
2017-Jan-09 10:33N 44°04' E 009°08'1313.4
2017-Jan-09 09:33N 44°15' E 008°59'10 9.5
2017-Jan-09 08:28N 44°24' E 008°52'0 0.0
2017-Jan-09 07:28N 44°24' E 008°52'0 0.0
2017-Jan-09 06:31N 44°24' E 008°52'0 0.0
2017-Jan-09 05:31N 44°24' E 008°52'0 0.0
2017-Jan-09 04:31N 44°24' E 008°52'0 0.0
2017-Jan-09 03:31N 44°24' E 008°52'0 0.0
2017-Jan-09 02:31N 44°24' E 008°52'0 0.0
2017-Jan-09 01:31N 44°24' E 008°52'0 0.0
2017-Jan-09 00:31N 44°24' E 008°52'0 0.0
2017-Jan-08 23:31N 44°24' E 008°52'0 0.0
2017-Jan-08 22:28N 44°24' E 008°52'0 0.0
2017-Jan-08 21:31N 44°24' E 008°52'0 0.0
2017-Jan-08 20:28N 44°24' E 008°52'0 0.0
2017-Jan-08 19:28N 44°24' E 008°52'0 0.0
2017-Jan-08 18:28N 44°24' E 008°52'0 0.0
2017-Jan-08 17:31N 44°24' E 008°52'0 0.0
2017-Jan-08 16:31N 44°24' E 008°52'0 0.0
2017-Jan-08 15:31N 44°24' E 008°52'0 0.0
2017-Jan-08 14:28N 44°24' E 008°52'0 0.0
2017-Jan-08 13:31N 44°24' E 008°52'0 0.0
2017-Jan-08 12:31N 44°24' E 008°52'0 0.0
2017-Jan-08 11:31N 44°24' E 008°52'0 0.0
2017-Jan-08 10:22N 44°24' E 008°52'0 0.0
2017-Jan-08 09:25N 44°24' E 008°52'0 0.0
2017-Jan-08 08:25N 44°24' E 008°52'0 0.0
2017-Jan-08 07:25N 44°24' E 008°52'0 0.2
2017-Jan-08 06:33N 44°24' E 008°52'5 5.0
2017-Jan-08 05:34N 44°22' E 008°58'1110.6
2017-Jan-08 04:33N 44°12' E 009°04'1212.5
2017-Jan-08 03:34N 44°01' E 009°12'1212.4
2017-Jan-08 02:33N 43°49' E 009°19'1212.3
2017-Jan-08 01:33N 43°38' E 009°26'1212.2
2017-Jan-08 00:33N 43°27' E 009°34'1212.4
2017-Jan-07 23:33N 43°20' E 009°48'1412.1
2017-Jan-07 22:25N 43°12' E 010°03'  

Dump ship's entire track history